createdAt,value
2019-03-20T00:02:10.585Z,14.53
2019-03-20T00:04:37.607Z,14.10
2019-03-20T00:07:04.642Z,15.33
2019-03-20T00:09:31.316Z,14.53
2019-03-20T00:11:57.960Z,14.00
2019-03-20T00:14:24.876Z,16.27
2019-03-20T00:16:51.694Z,15.07
2019-03-20T00:19:18.400Z,15.13
2019-03-20T00:21:45.160Z,13.90
2019-03-20T00:24:12.109Z,14.53
2019-03-20T00:26:38.822Z,15.93
2019-03-20T00:29:07.840Z,15.07
2019-03-20T00:31:34.925Z,14.77
2019-03-20T00:34:01.572Z,15.50
2019-03-20T00:36:28.324Z,16.50
2019-03-20T00:38:54.958Z,16.17
2019-03-20T00:41:21.782Z,14.60
2019-03-20T00:43:48.537Z,15.27
2019-03-20T00:46:16.182Z,16.00
2019-03-20T00:48:42.978Z,14.80
2019-03-20T00:51:10.929Z,16.57
2019-03-20T00:53:37.746Z,15.17
2019-03-20T00:56:04.478Z,15.57
2019-03-20T00:58:31.044Z,16.13
2019-03-20T01:00:57.783Z,15.10
2019-03-20T01:03:24.513Z,14.17
2019-03-20T01:05:51.833Z,14.87
2019-03-20T01:08:19.673Z,15.67
2019-03-20T01:10:46.441Z,15.63
2019-03-20T01:13:13.084Z,14.77
2019-03-20T01:15:39.677Z,16.20
2019-03-20T01:18:06.306Z,16.53
2019-03-20T01:20:33.338Z,16.73
2019-03-20T01:22:59.989Z,16.00
2019-03-20T01:25:26.712Z,15.53
2019-03-20T01:27:53.265Z,16.10
2019-03-20T01:30:39.437Z,17.00
2019-03-20T01:33:08.594Z,15.97
2019-03-20T01:35:35.445Z,18.10
2019-03-20T01:38:02.078Z,18.60
2019-03-20T01:40:30.071Z,16.50
2019-03-20T01:42:56.799Z,16.03
2019-03-20T01:45:23.668Z,18.33
2019-03-20T01:47:50.501Z,15.93
2019-03-20T01:50:17.164Z,16.40
2019-03-20T01:52:43.886Z,16.30
2019-03-20T01:55:10.781Z,16.63
2019-03-20T01:57:37.697Z,18.50
2019-03-20T02:00:06.619Z,14.97
2019-03-20T02:02:33.517Z,16.00
2019-03-20T02:05:00.317Z,15.77
2019-03-20T02:07:26.965Z,15.90
2019-03-20T02:09:53.605Z,17.33
2019-03-20T02:12:20.241Z,16.60
2019-03-20T02:14:46.897Z,16.30
2019-03-20T02:17:13.643Z,15.87
2019-03-20T02:19:40.276Z,17.80
2019-03-20T02:22:07.022Z,18.10
2019-03-20T02:24:33.692Z,17.07
2019-03-20T02:27:00.497Z,16.43
2019-03-20T02:29:27.101Z,16.43
2019-03-20T02:31:55.648Z,16.40
2019-03-20T02:34:22.349Z,18.43
2019-03-20T02:36:49.000Z,17.67
2019-03-20T02:39:15.686Z,18.67
2019-03-20T02:41:42.350Z,16.50
2019-03-20T02:44:09.224Z,17.40
2019-03-20T02:46:35.896Z,17.40
2019-03-20T02:49:02.720Z,17.27
2019-03-20T02:51:29.360Z,17.27
2019-03-20T02:53:56.074Z,16.97
2019-03-20T02:56:22.746Z,18.77
2019-03-20T02:58:49.411Z,18.87
2019-03-20T03:01:16.039Z,16.13
2019-03-20T03:03:42.818Z,16.67
2019-03-20T03:06:09.506Z,16.27
2019-03-20T03:08:36.189Z,17.33
2019-03-20T03:11:03.109Z,15.50
2019-03-20T03:13:29.828Z,17.73
2019-03-20T03:15:56.521Z,17.53
2019-03-20T03:18:23.072Z,16.03
2019-03-20T03:20:49.806Z,16.33
2019-03-20T03:23:16.442Z,16.43
2019-03-20T03:25:43.042Z,17.63
2019-03-20T03:28:09.559Z,16.47
2019-03-20T03:30:36.180Z,16.37
2019-03-20T03:33:03.277Z,16.70
2019-03-20T03:35:29.885Z,17.93
2019-03-20T03:37:56.499Z,16.90
2019-03-20T03:40:23.102Z,16.97
2019-03-20T03:42:49.846Z,17.13
2019-03-20T03:45:16.718Z,17.47
2019-03-20T03:47:43.904Z,17.37
2019-03-20T03:50:11.215Z,18.17
2019-03-20T03:52:38.029Z,16.60
2019-03-20T03:55:07.549Z,18.10
2019-03-20T03:57:34.300Z,17.90
2019-03-20T04:00:01.178Z,16.43
2019-03-20T04:02:27.775Z,17.27
2019-03-20T04:04:54.685Z,17.00
2019-03-20T04:07:23.652Z,17.00
2019-03-20T04:09:49.842Z,17.67
2019-03-20T04:12:16.490Z,19.93
2019-03-20T04:14:43.154Z,17.43
2019-03-20T04:17:18.807Z,18.63
2019-03-20T04:19:45.435Z,18.10
2019-03-20T04:22:14.030Z,19.57
2019-03-20T04:24:40.817Z,20.47
2019-03-20T04:27:08.678Z,22.23
2019-03-20T04:29:35.503Z,18.43
2019-03-20T04:32:15.304Z,19.30
2019-03-20T04:34:41.994Z,19.87
2019-03-20T04:37:08.661Z,20.37
2019-03-20T04:39:35.312Z,19.80
2019-03-20T04:42:01.963Z,20.47
2019-03-20T04:44:28.583Z,20.00
2019-03-20T04:46:55.478Z,21.37
2019-03-20T04:49:22.190Z,20.67
2019-03-20T04:51:50.617Z,21.40
2019-03-20T04:54:17.266Z,20.90
2019-03-20T04:56:43.891Z,21.00
2019-03-20T04:59:10.531Z,22.87
2019-03-20T05:01:37.450Z,23.20
2019-03-20T05:04:04.237Z,23.20
2019-03-20T05:06:30.896Z,22.83
2019-03-20T05:08:57.623Z,23.37
2019-03-20T05:11:24.430Z,22.73
2019-03-20T05:13:51.101Z,23.90
2019-03-20T05:16:17.777Z,23.47
2019-03-20T05:18:44.442Z,22.37
2019-03-20T05:21:10.952Z,23.53
2019-03-20T05:23:37.592Z,25.33
2019-03-20T05:26:04.342Z,23.50
2019-03-20T05:28:31.218Z,25.53
2019-03-20T05:30:57.813Z,26.57
2019-03-20T05:33:24.588Z,25.07
2019-03-20T05:35:51.606Z,26.67
2019-03-20T05:38:19.477Z,25.47
2019-03-20T05:40:46.114Z,27.47
2019-03-20T05:43:12.826Z,24.00
2019-03-20T05:45:39.459Z,25.37
2019-03-20T05:48:06.088Z,24.70
2019-03-20T05:50:32.884Z,25.30
2019-03-20T05:52:59.570Z,24.50
2019-03-20T05:55:26.291Z,27.37
2019-03-20T05:57:52.905Z,23.30
2019-03-20T06:00:24.486Z,23.90
2019-03-20T06:02:51.090Z,21.37
2019-03-20T06:05:17.727Z,22.60
2019-03-20T06:07:44.290Z,20.90
2019-03-20T06:10:15.334Z,22.97
2019-03-20T06:12:42.190Z,20.87
2019-03-20T06:15:09.222Z,20.47
2019-03-20T06:17:36.124Z,20.30
2019-03-20T06:20:05.863Z,21.60
2019-03-20T06:22:32.626Z,20.20
2019-03-20T06:24:59.524Z,19.93
2019-03-20T06:27:26.240Z,21.60
2019-03-20T06:29:52.909Z,18.07
2019-03-20T06:32:19.522Z,19.23
2019-03-20T06:34:46.220Z,21.10
2019-03-20T06:37:13.072Z,19.87
2019-03-20T06:39:41.984Z,20.83
2019-03-20T06:42:08.682Z,21.97
2019-03-20T06:44:35.250Z,18.43
2019-03-20T06:47:02.560Z,19.23
2019-03-20T06:49:29.170Z,17.33
2019-03-20T06:51:55.842Z,17.93
2019-03-20T06:54:22.547Z,22.40
2019-03-20T06:56:49.654Z,18.40
2019-03-20T06:59:27.398Z,24.47
2019-03-20T07:01:54.478Z,18.07
2019-03-20T07:04:24.922Z,16.73
2019-03-20T07:07:05.942Z,16.60
2019-03-20T07:09:42.399Z,15.37
2019-03-20T07:12:09.190Z,16.97
2019-03-20T07:14:35.821Z,14.63
2019-03-20T07:17:02.679Z,15.87
2019-03-20T07:19:29.321Z,15.23
2019-03-20T07:21:56.017Z,14.03
2019-03-20T07:24:22.756Z,14.70
2019-03-20T07:26:49.486Z,13.90
2019-03-20T07:29:16.104Z,14.73
2019-03-20T07:31:42.758Z,13.60
2019-03-20T07:34:09.603Z,14.03
2019-03-20T07:36:36.294Z,13.33
2019-03-20T07:39:07.104Z,15.87
2019-03-20T07:41:33.782Z,11.33
2019-03-20T07:44:00.482Z,13.33
2019-03-20T07:46:27.360Z,14.27
2019-03-20T07:48:54.028Z,12.17
2019-03-20T07:51:20.674Z,13.17
2019-03-20T07:53:47.385Z,12.50
2019-03-20T07:56:14.252Z,12.00
2019-03-20T07:58:40.926Z,12.63
2019-03-20T08:01:07.568Z,12.60
2019-03-20T08:03:35.948Z,13.60
2019-03-20T08:06:24.373Z,12.63
2019-03-20T08:08:51.034Z,11.30
2019-03-20T08:11:17.761Z,13.43
2019-03-20T08:13:44.428Z,11.60
2019-03-20T08:16:11.242Z,13.03
2019-03-20T08:18:37.899Z,12.23
2019-03-20T08:21:04.521Z,12.93
2019-03-20T08:23:31.152Z,10.57
2019-03-20T08:25:57.826Z,10.37
2019-03-20T08:28:24.603Z,9.63
2019-03-20T08:30:51.325Z,10.13
2019-03-20T08:33:17.984Z,9.33
2019-03-20T08:35:44.545Z,8.80
2019-03-20T08:38:18.238Z,8.07
2019-03-20T08:40:40.251Z,8.93
2019-03-20T08:43:06.946Z,9.10
2019-03-20T08:45:33.564Z,7.73
2019-03-20T08:48:00.667Z,8.40
2019-03-20T08:50:27.628Z,9.53
2019-03-20T08:52:54.371Z,7.27
2019-03-20T08:55:21.470Z,7.63
2019-03-20T08:57:48.686Z,7.50
2019-03-20T09:00:21.404Z,7.50
2019-03-20T09:02:50.149Z,7.53
2019-03-20T09:05:16.831Z,7.10
2019-03-20T09:07:47.565Z,7.33
2019-03-20T09:10:16.282Z,6.33
2019-03-20T09:12:42.987Z,7.13
2019-03-20T09:15:11.948Z,6.33
2019-03-20T09:17:38.647Z,6.10
2019-03-20T09:20:08.716Z,5.90
2019-03-20T09:22:35.422Z,5.87
2019-03-20T09:25:04.614Z,5.87
2019-03-20T09:27:31.158Z,4.93
2019-03-20T09:29:58.024Z,5.13
2019-03-20T09:32:24.707Z,6.33
2019-03-20T09:34:51.318Z,6.40
2019-03-20T09:37:17.983Z,6.20
2019-03-20T09:39:44.813Z,5.97
2019-03-20T09:42:11.420Z,5.80
2019-03-20T09:44:38.159Z,6.43
2019-03-20T09:47:04.804Z,6.57
2019-03-20T09:49:31.416Z,7.90
2019-03-20T09:51:58.386Z,7.23
2019-03-20T09:54:27.106Z,6.00
2019-03-20T09:56:53.728Z,5.80
2019-03-20T09:59:20.534Z,6.77
2019-03-20T10:01:47.237Z,7.67
2019-03-20T10:04:14.305Z,5.90
2019-03-20T10:06:41.024Z,5.60
2019-03-20T10:09:07.738Z,5.97
2019-03-20T10:11:34.740Z,6.13
2019-03-20T10:14:01.478Z,7.43
2019-03-20T10:16:28.168Z,5.83
2019-03-20T10:18:54.765Z,4.50
2019-03-20T10:21:21.444Z,5.80
2019-03-20T10:23:48.145Z,5.37
2019-03-20T10:26:14.864Z,5.50
2019-03-20T10:28:41.528Z,3.77
2019-03-20T10:31:08.155Z,5.30
2019-03-20T10:33:34.939Z,4.20
2019-03-20T10:36:01.632Z,5.47
2019-03-20T10:38:28.329Z,4.03
2019-03-20T10:40:54.868Z,4.00
2019-03-20T10:43:21.501Z,4.63
2019-03-20T10:45:48.121Z,4.70
2019-03-20T10:48:14.807Z,4.47
2019-03-20T10:50:41.543Z,5.13
2019-03-20T10:53:08.151Z,4.87
2019-03-20T10:55:34.885Z,4.60
2019-03-20T10:58:01.491Z,5.27
2019-03-20T11:00:28.859Z,5.20
2019-03-20T11:02:55.910Z,4.33
2019-03-20T11:05:25.573Z,4.60
2019-03-20T11:07:53.353Z,4.63
2019-03-20T11:10:22.818Z,4.30
2019-03-20T11:12:49.561Z,3.77
2019-03-20T11:15:17.435Z,4.40
2019-03-20T11:17:44.454Z,4.53
2019-03-20T11:20:16.897Z,4.67
2019-03-20T11:22:45.221Z,3.73
2019-03-20T11:25:39.840Z,4.77
2019-03-20T11:28:06.493Z,5.37
2019-03-20T11:30:33.319Z,7.50
2019-03-20T11:33:00.168Z,12.07
2019-03-20T11:35:26.855Z,9.37
2019-03-20T11:37:54.996Z,4.87
2019-03-20T11:40:28.371Z,4.53
2019-03-20T11:42:55.168Z,4.90
2019-03-20T11:45:23.514Z,5.57
2019-03-20T11:47:50.872Z,4.27
2019-03-20T11:50:40.601Z,4.70
2019-03-20T11:53:08.299Z,7.30
2019-03-20T11:55:35.633Z,12.77
2019-03-20T11:58:02.669Z,5.90
2019-03-20T12:00:29.491Z,8.27
2019-03-20T12:02:56.051Z,11.47
2019-03-20T12:05:24.343Z,4.97
2019-03-20T12:07:51.019Z,6.27
2019-03-20T12:10:24.655Z,5.00
2019-03-20T12:12:51.680Z,5.47
2019-03-20T12:15:18.540Z,5.17
2019-03-20T12:17:45.545Z,4.53
2019-03-20T12:20:17.408Z,4.53
2019-03-20T12:22:45.369Z,4.90
2019-03-20T12:25:24.119Z,5.07
2019-03-20T12:27:51.040Z,4.27
2019-03-20T12:30:23.197Z,8.47
2019-03-20T12:32:50.075Z,5.00
2019-03-20T12:35:17.639Z,4.60
2019-03-20T12:37:47.562Z,5.10
2019-03-20T12:40:21.219Z,4.40
2019-03-20T12:42:48.055Z,10.53
2019-03-20T12:45:19.477Z,5.30
2019-03-20T12:47:49.449Z,5.40
2019-03-20T12:50:16.207Z,5.13
2019-03-20T12:52:43.057Z,5.77
2019-03-20T12:55:17.727Z,6.07
2019-03-20T12:57:44.598Z,6.53
2019-03-20T13:00:15.011Z,5.27
2019-03-20T13:02:41.747Z,5.07
2019-03-20T13:05:11.290Z,5.60
2019-03-20T13:07:37.977Z,5.80
2019-03-20T13:10:20.138Z,5.83
2019-03-20T13:12:47.745Z,5.40
2019-03-20T13:15:24.460Z,6.03
2019-03-20T13:17:55.812Z,5.83
2019-03-20T13:20:23.761Z,5.47
2019-03-20T13:22:57.218Z,5.83
2019-03-20T13:25:23.910Z,6.00
2019-03-20T13:27:51.891Z,6.70
2019-03-20T13:30:35.615Z,5.83
2019-03-20T13:33:03.014Z,6.73
2019-03-20T13:35:30.866Z,6.10
2019-03-20T13:37:57.692Z,5.63
2019-03-20T13:40:24.329Z,5.80
2019-03-20T13:42:50.961Z,5.40
2019-03-20T13:45:20.866Z,5.93
2019-03-20T13:47:48.912Z,7.97
2019-03-20T13:50:15.660Z,6.43
2019-03-20T13:52:42.790Z,8.30
2019-03-20T13:55:11.711Z,6.73
2019-03-20T13:57:38.771Z,6.20
2019-03-20T14:00:23.591Z,5.07
2019-03-20T14:02:50.639Z,7.30
2019-03-20T14:05:17.470Z,5.40
2019-03-20T14:07:44.226Z,7.13
2019-03-20T14:10:25.397Z,6.23
2019-03-20T14:12:51.716Z,6.30
2019-03-20T14:15:18.932Z,5.13
2019-03-20T14:17:45.872Z,5.23
2019-03-20T14:20:27.003Z,5.87
2019-03-20T14:22:55.004Z,8.17
2019-03-20T14:25:22.066Z,6.47
2019-03-20T14:27:50.541Z,7.57
2019-03-20T14:30:26.065Z,6.67
2019-03-20T14:32:52.946Z,6.30
2019-03-20T14:35:20.480Z,6.23
2019-03-20T14:37:47.216Z,6.27
2019-03-20T14:40:35.374Z,6.37
2019-03-20T14:42:57.487Z,6.03
2019-03-20T14:45:24.254Z,6.90
2019-03-20T14:47:51.124Z,10.97
2019-03-20T14:50:21.065Z,6.87
2019-03-20T14:52:47.682Z,6.27
2019-03-20T14:55:14.523Z,5.80
2019-03-20T14:57:41.264Z,6.13
2019-03-20T15:00:35.846Z,5.43
2019-03-20T15:03:02.696Z,5.83
2019-03-20T15:05:29.459Z,6.37
2019-03-20T15:07:56.188Z,6.07
2019-03-20T15:10:26.686Z,5.70
2019-03-20T15:12:55.057Z,6.00
2019-03-20T15:15:43.714Z,56.17
2019-03-20T15:18:10.382Z,9.10
2019-03-20T15:20:37.076Z,7.07
2019-03-20T15:23:03.849Z,5.87
2019-03-20T15:25:30.474Z,5.83
2019-03-20T15:27:57.081Z,5.30
2019-03-20T15:30:24.943Z,5.10
2019-03-20T15:32:51.662Z,6.43
2019-03-20T15:35:18.692Z,5.60
2019-03-20T15:37:45.658Z,5.77
2019-03-20T15:40:17.060Z,4.90
2019-03-20T15:42:43.794Z,6.67
2019-03-20T15:45:13.172Z,6.50
2019-03-20T15:47:40.082Z,5.67
2019-03-20T15:50:09.954Z,6.43
2019-03-20T15:52:36.581Z,5.80
2019-03-20T15:55:07.039Z,6.10
2019-03-20T15:57:35.496Z,6.30
2019-03-20T16:00:05.769Z,6.77
2019-03-20T16:02:32.516Z,6.00
2019-03-20T16:04:59.292Z,6.67
2019-03-20T16:07:25.962Z,5.33
2019-03-20T16:09:52.630Z,6.23
2019-03-20T16:12:19.363Z,6.50
2019-03-20T16:14:46.151Z,6.60
2019-03-20T16:17:12.862Z,5.53
2019-03-20T16:19:39.457Z,6.63
2019-03-20T16:22:06.258Z,28.50
2019-03-20T16:24:33.132Z,11.40
2019-03-20T16:27:01.697Z,6.53
2019-03-20T16:29:28.396Z,5.87
2019-03-20T16:31:55.043Z,5.90
2019-03-20T16:34:21.878Z,6.27
2019-03-20T16:36:48.678Z,7.63
2019-03-20T16:39:15.318Z,12.53
2019-03-20T16:41:41.922Z,10.00
2019-03-20T16:44:08.590Z,6.63
2019-03-20T16:46:35.359Z,16.93
2019-03-20T16:49:02.111Z,6.77
2019-03-20T16:51:28.852Z,8.27
2019-03-20T16:53:55.656Z,6.77
2019-03-20T16:56:22.336Z,8.17
2019-03-20T16:58:49.215Z,7.67
2019-03-20T17:01:15.922Z,9.80
2019-03-20T17:03:42.614Z,10.70
2019-03-20T17:06:09.226Z,11.73
2019-03-20T17:08:36.226Z,7.73
2019-03-20T17:11:03.374Z,8.27
2019-03-20T17:13:30.067Z,9.10
2019-03-20T17:15:57.053Z,13.47
2019-03-20T17:18:23.788Z,8.97
2019-03-20T17:20:50.513Z,7.37
2019-03-20T17:23:18.042Z,8.70
2019-03-20T17:25:44.715Z,8.70
2019-03-20T17:28:11.416Z,16.93
2019-03-20T17:30:41.097Z,12.97
2019-03-20T17:33:07.746Z,24.00
2019-03-20T17:35:34.433Z,15.03
2019-03-20T17:38:01.099Z,17.83
2019-03-20T17:40:29.808Z,11.50
2019-03-20T17:42:56.764Z,12.27
2019-03-20T17:45:27.892Z,8.47
2019-03-20T17:47:54.657Z,8.93
2019-03-20T17:50:26.373Z,7.63
2019-03-20T17:52:53.121Z,6.30
2019-03-20T17:55:20.184Z,10.67
2019-03-20T17:57:47.028Z,12.43
2019-03-20T18:00:24.144Z,8.10
2019-03-20T18:02:50.891Z,6.80
2019-03-20T18:05:17.943Z,9.00
2019-03-20T18:07:44.721Z,13.67
2019-03-20T18:10:11.820Z,11.40
2019-03-20T18:12:38.844Z,11.77
2019-03-20T18:15:09.012Z,11.90
2019-03-20T18:17:35.918Z,14.37
2019-03-20T18:20:05.735Z,14.70
2019-03-20T18:22:32.562Z,14.40
2019-03-20T18:24:59.525Z,63.97
2019-03-20T18:27:26.192Z,12.23
2019-03-20T18:29:53.000Z,11.73
2019-03-20T18:32:20.015Z,11.87
2019-03-20T18:34:48.373Z,13.00
2019-03-20T18:37:15.025Z,14.37
2019-03-20T18:39:41.829Z,19.33
2019-03-20T18:42:09.681Z,18.57
2019-03-20T18:44:36.433Z,15.53
2019-03-20T18:47:03.275Z,15.77
2019-03-20T18:49:29.893Z,13.10
2019-03-20T18:51:56.505Z,10.90
2019-03-20T18:54:25.133Z,14.13
2019-03-20T18:56:51.887Z,39.03
2019-03-20T18:59:18.505Z,28.33
2019-03-20T19:01:46.579Z,17.20
2019-03-20T19:04:13.322Z,19.27
2019-03-20T19:06:40.393Z,19.00
2019-03-20T19:09:07.991Z,16.90
2019-03-20T19:11:35.953Z,14.00
2019-03-20T19:14:03.347Z,16.60
2019-03-20T19:16:31.218Z,19.97
2019-03-20T19:18:58.198Z,18.37
2019-03-20T19:21:25.135Z,15.10
2019-03-20T19:23:51.952Z,13.90
2019-03-20T19:26:18.736Z,15.47
2019-03-20T19:28:45.544Z,15.53
2019-03-20T19:31:12.224Z,18.73
2019-03-20T19:33:39.038Z,21.60
2019-03-20T19:36:05.828Z,17.47
2019-03-20T19:38:35.165Z,18.73
2019-03-20T19:41:01.201Z,21.77
2019-03-20T19:43:27.917Z,25.90
2019-03-20T19:45:54.753Z,23.27
2019-03-20T19:48:21.521Z,23.33
2019-03-20T19:50:48.239Z,19.80
2019-03-20T19:53:14.977Z,16.07
2019-03-20T19:55:41.667Z,17.07
2019-03-20T19:58:08.687Z,19.43
2019-03-20T20:00:35.527Z,26.43
2019-03-20T20:03:03.376Z,21.40
2019-03-20T20:05:30.445Z,15.47
2019-03-20T20:07:57.109Z,17.90
2019-03-20T20:10:24.126Z,17.77
2019-03-20T20:12:50.785Z,21.60
2019-03-20T20:15:26.486Z,17.90
2019-03-20T20:17:54.623Z,17.13
2019-03-20T20:20:23.202Z,15.47
2019-03-20T20:22:51.175Z,16.50
2019-03-20T20:25:18.145Z,17.50
2019-03-20T20:27:46.091Z,16.07
2019-03-20T20:30:14.948Z,16.00
2019-03-20T20:32:41.609Z,15.77
2019-03-20T20:35:09.549Z,16.73
2019-03-20T20:37:36.406Z,16.80
2019-03-20T20:40:06.883Z,17.47
2019-03-20T20:42:42.573Z,16.80
2019-03-20T20:45:04.083Z,16.47
2019-03-20T20:47:30.890Z,16.40
2019-03-20T20:49:58.528Z,16.27
2019-03-20T20:52:25.358Z,17.53
2019-03-20T20:54:52.015Z,19.80
2019-03-20T20:57:18.664Z,18.00
2019-03-20T20:59:45.407Z,18.53
2019-03-20T21:02:12.040Z,17.23
2019-03-20T21:04:38.817Z,18.30
2019-03-20T21:07:05.487Z,22.47
2019-03-20T21:09:32.159Z,19.43
2019-03-20T21:11:59.016Z,18.43
2019-03-20T21:14:25.988Z,19.97
2019-03-20T21:16:52.686Z,20.23
2019-03-20T21:19:32.431Z,19.37
2019-03-20T21:22:13.206Z,19.57
2019-03-20T21:24:39.826Z,19.67
2019-03-20T21:27:28.116Z,21.17
2019-03-20T21:30:15.702Z,21.20
2019-03-20T21:32:45.669Z,20.17
2019-03-20T21:35:40.193Z,19.70
2019-03-20T21:38:07.305Z,20.00
2019-03-20T21:40:41.141Z,21.63
2019-03-20T21:43:37.668Z,20.60
2019-03-20T21:46:17.416Z,20.63
2019-03-20T21:48:44.139Z,48.43
2019-03-20T21:51:14.927Z,22.10
2019-03-20T21:53:48.197Z,23.73
2019-03-20T21:56:33.887Z,20.70
2019-03-20T21:59:20.693Z,22.07
2019-03-20T22:02:20.225Z,21.27
2019-03-20T22:04:46.971Z,22.23
2019-03-20T22:07:13.765Z,22.03
2019-03-20T22:09:53.530Z,21.87
2019-03-20T22:12:33.253Z,20.80
2019-03-20T22:15:18.769Z,18.93
2019-03-20T22:18:06.001Z,20.70
2019-03-20T22:21:05.682Z,18.63
2019-03-20T22:23:59.137Z,18.33
2019-03-20T22:26:32.853Z,20.20
2019-03-20T22:29:23.199Z,17.13
2019-03-20T22:31:57.769Z,19.57
2019-03-20T22:34:43.548Z,18.13
2019-03-20T22:37:12.804Z,18.77
2019-03-20T22:40:15.515Z,18.07
2019-03-20T22:42:57.942Z,16.73
2019-03-20T22:45:54.187Z,20.33
2019-03-20T22:48:36.823Z,18.07
2019-03-20T22:51:27.543Z,17.27
2019-03-20T22:54:14.829Z,17.80
2019-03-20T22:57:02.876Z,18.23
2019-03-20T22:59:29.507Z,20.13
2019-03-20T23:02:02.786Z,19.13
2019-03-20T23:04:35.962Z,19.37
2019-03-20T23:07:02.887Z,18.27
2019-03-20T23:09:29.575Z,18.67
2019-03-20T23:12:00.335Z,18.20
2019-03-20T23:14:27.022Z,18.60
2019-03-20T23:16:53.657Z,19.60
2019-03-20T23:19:20.309Z,19.47
2019-03-20T23:21:47.063Z,19.07
2019-03-20T23:24:13.907Z,21.13
2019-03-20T23:26:40.653Z,19.93
2019-03-20T23:29:07.483Z,19.87
2019-03-20T23:31:36.064Z,20.97
2019-03-20T23:34:02.927Z,22.73
2019-03-20T23:36:29.643Z,22.23
2019-03-20T23:38:56.466Z,23.27
2019-03-20T23:41:23.178Z,23.87
2019-03-20T23:43:53.250Z,20.77
2019-03-20T23:46:18.506Z,27.60
2019-03-20T23:48:51.705Z,21.00
2019-03-20T23:51:22.826Z,24.70
2019-03-20T23:53:51.044Z,30.43
2019-03-20T23:56:17.767Z,26.70
2019-03-20T23:58:44.564Z,21.77
